createdAt,value
2022-11-02T00:03:47.930Z,51.00
2022-11-02T00:08:53.833Z,50.80
2022-11-02T00:13:59.718Z,50.90
2022-11-02T00:19:06.656Z,46.30
2022-11-02T00:24:12.859Z,44.50
2022-11-02T00:29:18.902Z,43.90
2022-11-02T00:34:25.544Z,50.60
2022-11-02T00:39:31.557Z,49.90
2022-11-02T00:44:37.501Z,49.00
2022-11-02T00:49:43.636Z,48.90
2022-11-02T00:54:50.442Z,48.60
2022-11-02T00:59:57.233Z,66.00
2022-11-02T01:05:03.262Z,68.70
2022-11-02T01:10:10.595Z,68.50
2022-11-02T01:15:16.785Z,63.60
2022-11-02T01:20:23.298Z,62.00
2022-11-02T01:25:29.234Z,57.30
2022-11-02T01:30:38.162Z,51.30
2022-11-02T01:35:44.454Z,51.20
2022-11-02T01:40:50.322Z,55.70
2022-11-02T01:46:00.118Z,67.50
2022-11-02T01:51:09.664Z,66.20
2022-11-02T01:56:18.234Z,67.40
2022-11-02T02:01:26.326Z,57.80
2022-11-02T02:06:32.688Z,53.60
2022-11-02T02:11:40.718Z,46.20
2022-11-02T02:16:57.296Z,53.10
2022-11-02T02:22:26.947Z,43.50
2022-11-02T02:27:46.484Z,47.00
2022-11-02T02:32:57.537Z,50.50
2022-11-02T02:38:07.756Z,49.30
2022-11-02T02:43:21.073Z,50.20
2022-11-02T02:48:27.387Z,50.70
2022-11-02T02:53:38.722Z,51.80
2022-11-02T02:58:52.994Z,52.00
2022-11-02T03:03:59.635Z,65.20
2022-11-02T03:09:16.778Z,67.70
2022-11-02T03:14:38.457Z,69.20
2022-11-02T03:19:53.246Z,71.00
2022-11-02T03:25:10.368Z,67.80
2022-11-02T03:30:19.981Z,75.80
2022-11-02T03:35:36.015Z,76.20
2022-11-02T03:40:47.062Z,79.00
2022-11-02T03:45:55.972Z,77.20
2022-11-02T03:51:08.829Z,77.90
2022-11-02T03:56:21.444Z,75.60
2022-11-02T04:01:29.639Z,75.90
2022-11-02T04:06:36.996Z,80.60
2022-11-02T04:12:01.923Z,80.70
2022-11-02T04:17:28.775Z,80.70
2022-11-02T04:22:54.001Z,73.20
2022-11-02T04:28:08.999Z,83.10
2022-11-02T04:33:35.265Z,78.60
2022-11-02T04:38:53.725Z,89.70
2022-11-02T04:44:04.253Z,86.40
2022-11-02T04:49:11.247Z,94.40
2022-11-02T04:54:17.258Z,93.70
2022-11-02T04:59:23.666Z,96.20
2022-11-02T05:04:29.813Z,98.50
2022-11-02T05:09:36.105Z,95.10
2022-11-02T05:14:42.693Z,94.10
2022-11-02T05:19:48.940Z,90.10
2022-11-02T05:24:54.863Z,92.50
2022-11-02T05:30:02.037Z,101.10
2022-11-02T05:35:09.725Z,110.90
2022-11-02T05:40:17.666Z,110.60
2022-11-02T05:45:24.903Z,109.10
2022-11-02T05:50:31.014Z,105.30
2022-11-02T05:55:38.683Z,105.60
2022-11-02T06:00:44.617Z,106.00
2022-11-02T06:05:57.904Z,117.20
2022-11-02T06:11:06.859Z,104.50
2022-11-02T06:16:18.703Z,100.00
2022-11-02T06:21:28.458Z,94.60
2022-11-02T06:26:34.248Z,101.60
2022-11-02T06:31:40.315Z,94.90
2022-11-02T06:36:46.286Z,97.50
2022-11-02T06:41:52.814Z,90.80
2022-11-02T06:46:59.236Z,79.50
2022-11-02T06:52:05.435Z,84.00
2022-11-02T06:57:11.303Z,75.70
2022-11-02T07:02:17.329Z,70.20
2022-11-02T07:07:23.486Z,69.10
2022-11-02T07:12:31.557Z,62.50
2022-11-02T07:17:41.169Z,55.60
2022-11-02T07:22:55.863Z,62.00
2022-11-02T07:28:02.912Z,57.40
2022-11-02T07:33:09.038Z,61.70
2022-11-02T07:38:15.329Z,49.30
2022-11-02T07:43:21.626Z,45.40
2022-11-02T07:48:36.152Z,40.30
2022-11-02T07:53:42.610Z,39.00
2022-11-02T07:58:49.101Z,37.00
2022-11-02T08:03:56.511Z,37.50
2022-11-02T08:09:03.322Z,35.20
2022-11-02T08:14:29.141Z,34.00
2022-11-02T08:19:35.239Z,37.30
2022-11-02T08:24:41.293Z,32.70
2022-11-02T08:29:47.106Z,30.90
2022-11-02T08:34:53.120Z,27.20
2022-11-02T08:39:59.000Z,28.50
2022-11-02T08:45:06.168Z,29.50
2022-11-02T08:50:13.672Z,31.80
2022-11-02T08:55:21.136Z,32.10
2022-11-02T09:00:30.089Z,33.60
2022-11-02T09:05:37.932Z,27.20
2022-11-02T09:10:46.021Z,23.90
2022-11-02T09:15:53.833Z,29.70
2022-11-02T09:21:03.820Z,27.80
2022-11-02T09:26:09.649Z,26.20
2022-11-02T09:31:15.585Z,28.70
2022-11-02T09:36:21.819Z,27.50
2022-11-02T09:41:36.668Z,28.70
2022-11-02T09:46:46.040Z,31.50
2022-11-02T09:51:55.312Z,26.20
2022-11-02T09:57:05.385Z,28.10
2022-11-02T10:02:25.312Z,31.90
2022-11-02T10:07:57.315Z,29.50
2022-11-02T10:13:14.736Z,29.90
2022-11-02T10:18:24.663Z,25.70
2022-11-02T10:23:33.681Z,30.30
2022-11-02T10:28:43.933Z,30.90
2022-11-02T10:33:52.867Z,27.50
2022-11-02T10:39:12.554Z,32.00
2022-11-02T10:44:32.947Z,70.00
2022-11-02T10:49:58.518Z,29.60
2022-11-02T10:55:05.117Z,31.40
2022-11-02T11:00:26.992Z,32.80
2022-11-02T11:05:33.941Z,28.80
2022-11-02T11:10:40.680Z,27.60
2022-11-02T11:15:52.642Z,26.50
2022-11-02T11:20:59.693Z,32.70
2022-11-02T11:26:12.157Z,28.80
2022-11-02T11:31:19.753Z,30.40
2022-11-02T11:36:30.389Z,28.30
2022-11-02T11:41:43.758Z,28.70
2022-11-02T11:46:54.209Z,26.70
2022-11-02T11:52:02.734Z,22.60
2022-11-02T11:57:28.297Z,21.40
2022-11-02T12:02:40.951Z,21.40
2022-11-02T12:08:20.452Z,21.00
2022-11-02T12:13:45.646Z,20.90
2022-11-02T12:19:04.507Z,26.10
2022-11-02T12:24:33.616Z,25.50
2022-11-02T12:30:01.402Z,21.20
2022-11-02T12:35:32.234Z,21.60
2022-11-02T12:40:54.751Z,20.80
2022-11-02T12:46:07.722Z,22.20
2022-11-02T12:51:16.735Z,23.10
2022-11-02T12:56:26.449Z,15.00
2022-11-02T13:01:35.984Z,15.40
2022-11-02T13:06:44.529Z,15.70
2022-11-02T13:12:06.194Z,18.20
2022-11-02T13:17:17.967Z,22.60
2022-11-02T13:22:32.116Z,18.10
2022-11-02T13:27:46.107Z,22.40
2022-11-02T13:32:58.753Z,19.90
2022-11-02T13:38:13.567Z,23.80
2022-11-02T13:43:47.947Z,28.70
2022-11-02T13:48:59.152Z,28.20
2022-11-02T13:59:23.619Z,20.00
2022-11-02T14:04:37.904Z,25.40
2022-11-02T14:09:45.724Z,19.50
2022-11-02T14:15:46.615Z,20.10
2022-11-02T14:20:52.893Z,23.30
2022-11-02T14:25:59.610Z,22.20
2022-11-02T14:31:31.638Z,21.50
2022-11-02T14:36:55.449Z,21.40
2022-11-02T14:42:19.672Z,21.50
2022-11-02T14:47:29.906Z,24.70
2022-11-02T14:52:37.807Z,24.90
2022-11-02T14:57:52.595Z,26.60
2022-11-02T15:03:00.702Z,23.00
2022-11-02T15:08:09.305Z,25.60
2022-11-02T15:13:39.988Z,24.20
2022-11-02T15:18:46.066Z,23.70
2022-11-02T15:24:16.982Z,27.70
2022-11-02T15:29:37.059Z,24.40
2022-11-02T15:34:48.050Z,24.70
2022-11-02T15:39:57.097Z,28.10
2022-11-02T15:45:51.856Z,32.50
2022-11-02T15:51:14.470Z,26.70
2022-11-02T15:56:39.895Z,26.10
2022-11-02T16:01:46.120Z,37.80
2022-11-02T16:06:53.205Z,46.00
2022-11-02T16:12:13.192Z,37.30
2022-11-02T16:17:24.820Z,29.90
2022-11-02T16:22:31.001Z,28.30
2022-11-02T16:27:40.705Z,35.00
2022-11-02T16:32:49.786Z,49.70
2022-11-02T16:37:56.192Z,39.60
2022-11-02T16:43:02.189Z,41.10
2022-11-02T16:48:21.738Z,40.60
2022-11-02T16:53:32.014Z,37.40
2022-11-02T16:58:38.142Z,43.10
2022-11-02T17:03:44.170Z,44.90
2022-11-02T17:08:55.502Z,48.80
2022-11-02T17:19:46.905Z,29.70
2022-11-02T17:25:04.783Z,27.40
2022-11-02T17:30:40.615Z,24.00
2022-11-02T17:35:50.582Z,19.80
2022-11-02T17:40:59.224Z,21.50
2022-11-02T17:46:05.213Z,19.70
2022-11-02T17:51:15.483Z,20.30
2022-11-02T17:56:22.429Z,23.80
2022-11-02T18:01:28.807Z,17.60
2022-11-02T18:06:35.268Z,20.10
2022-11-02T18:11:41.576Z,21.20
2022-11-02T18:16:48.268Z,20.10
2022-11-02T18:21:54.185Z,24.20
2022-11-02T18:27:00.341Z,16.60
2022-11-02T18:32:06.628Z,19.10
2022-11-02T18:37:12.586Z,16.20
2022-11-02T18:42:18.748Z,17.60
2022-11-02T18:47:25.403Z,15.60
2022-11-02T18:52:32.488Z,18.40
2022-11-02T18:57:38.591Z,17.30
2022-11-02T19:02:44.772Z,18.40
2022-11-02T19:08:09.658Z,17.90
2022-11-02T19:13:16.120Z,19.00
2022-11-02T19:18:22.431Z,20.00
2022-11-02T19:23:28.475Z,21.90
2022-11-02T19:28:34.496Z,22.30
2022-11-02T19:33:40.821Z,17.40
2022-11-02T19:38:46.744Z,21.00
2022-11-02T19:43:53.402Z,22.90
2022-11-02T19:48:59.742Z,20.60
2022-11-02T19:54:06.391Z,27.80
2022-11-02T19:59:12.944Z,24.70
2022-11-02T20:04:19.335Z,26.00
2022-11-02T20:09:25.246Z,24.80
2022-11-02T20:14:31.428Z,27.70
2022-11-02T20:19:37.867Z,25.20
2022-11-02T20:24:44.133Z,27.00
2022-11-02T20:29:50.376Z,25.20
2022-11-02T20:34:56.246Z,26.20
2022-11-02T20:40:02.384Z,22.80
2022-11-02T20:45:10.435Z,22.50
2022-11-02T20:50:19.409Z,20.10
2022-11-02T20:55:29.975Z,19.80
2022-11-02T21:00:36.261Z,18.60
2022-11-02T21:05:42.797Z,19.40
2022-11-02T21:10:57.949Z,15.30
2022-11-02T21:16:05.953Z,16.00
2022-11-02T21:21:13.932Z,13.90
2022-11-02T21:26:19.802Z,18.70
2022-11-02T21:31:26.033Z,16.80
2022-11-02T21:36:32.075Z,18.10
2022-11-02T21:41:39.096Z,18.60
2022-11-02T21:46:45.091Z,20.30
2022-11-02T21:51:50.963Z,25.00
2022-11-02T21:56:58.251Z,15.60
2022-11-02T22:02:04.309Z,17.00
2022-11-02T22:07:10.666Z,17.40
2022-11-02T22:12:35.492Z,22.50
2022-11-02T22:17:49.549Z,20.60
2022-11-02T22:22:56.107Z,25.50
2022-11-02T22:28:02.094Z,22.60
2022-11-02T22:33:11.425Z,19.30
2022-11-02T22:38:36.017Z,26.70
2022-11-02T22:43:42.475Z,27.30
2022-11-02T22:48:50.222Z,21.40
2022-11-02T22:53:59.571Z,19.40
2022-11-02T22:59:06.137Z,22.50
2022-11-02T23:04:13.350Z,19.30
2022-11-02T23:09:19.463Z,24.70
2022-11-02T23:14:25.313Z,22.10
2022-11-02T23:19:31.803Z,22.90
2022-11-02T23:24:57.192Z,25.00
2022-11-02T23:30:22.422Z,22.60
2022-11-02T23:35:47.262Z,20.30
2022-11-02T23:40:56.209Z,18.50
2022-11-02T23:46:02.460Z,19.80
2022-11-02T23:51:27.874Z,23.90
2022-11-02T23:56:44.237Z,20.20
